sensor_id;sensor_type;location;lat;lon;timestamp;temperature;humidity
12887;DHT22;6511;49.746;6.094;2022-12-07T00:01:41;2.40;99.90
12887;DHT22;6511;49.746;6.094;2022-12-07T00:04:07;2.40;99.90
12887;DHT22;6511;49.746;6.094;2022-12-07T00:06:37;2.40;99.90
12887;DHT22;6511;49.746;6.094;2022-12-07T00:09:07;2.40;99.90
12887;DHT22;6511;49.746;6.094;2022-12-07T00:11:32;2.40;99.90
12887;DHT22;6511;49.746;6.094;2022-12-07T00:13:59;2.40;99.90
12887;DHT22;6511;49.746;6.094;2022-12-07T00:16:26;2.40;99.90
12887;DHT22;6511;49.746;6.094;2022-12-07T00:18:52;2.40;99.90
12887;DHT22;6511;49.746;6.094;2022-12-07T00:21:19;2.40;99.90
12887;DHT22;6511;49.746;6.094;2022-12-07T00:23:45;2.40;99.90
12887;DHT22;6511;49.746;6.094;2022-12-07T00:26:15;2.40;99.90
12887;DHT22;6511;49.746;6.094;2022-12-07T00:28:40;2.40;99.90
12887;DHT22;6511;49.746;6.094;2022-12-07T00:31:07;2.50;99.90
12887;DHT22;6511;49.746;6.094;2022-12-07T00:33:33;2.50;99.90
12887;DHT22;6511;49.746;6.094;2022-12-07T00:35:59;2.40;99.90
12887;DHT22;6511;49.746;6.094;2022-12-07T00:38:26;2.40;99.90
12887;DHT22;6511;49.746;6.094;2022-12-07T00:40:56;2.40;99.90
12887;DHT22;6511;49.746;6.094;2022-12-07T00:43:21;2.30;99.90
12887;DHT22;6511;49.746;6.094;2022-12-07T00:45:47;2.30;99.90
12887;DHT22;6511;49.746;6.094;2022-12-07T00:48:12;2.30;99.90
12887;DHT22;6511;49.746;6.094;2022-12-07T00:50:38;2.40;99.90
12887;DHT22;6511;49.746;6.094;2022-12-07T00:53:03;2.40;99.90
12887;DHT22;6511;49.746;6.094;2022-12-07T00:55:32;2.30;99.90
12887;DHT22;6511;49.746;6.094;2022-12-07T00:57:57;2.30;99.90
12887;DHT22;6511;49.746;6.094;2022-12-07T01:00:23;2.30;99.90
12887;DHT22;6511;49.746;6.094;2022-12-07T01:02:48;2.30;99.90
12887;DHT22;6511;49.746;6.094;2022-12-07T01:05:14;2.40;99.90
12887;DHT22;6511;49.746;6.094;2022-12-07T01:07:39;2.30;99.90
12887;DHT22;6511;49.746;6.094;2022-12-07T01:10:05;2.30;99.90
12887;DHT22;6511;49.746;6.094;2022-12-07T01:12:31;2.20;99.90
12887;DHT22;6511;49.746;6.094;2022-12-07T01:14:56;2.20;99.90
12887;DHT22;6511;49.746;6.094;2022-12-07T01:17:21;2.20;99.90
12887;DHT22;6511;49.746;6.094;2022-12-07T01:19:47;2.20;99.90
12887;DHT22;6511;49.746;6.094;2022-12-07T01:22:12;2.30;99.90
12887;DHT22;6511;49.746;6.094;2022-12-07T01:24:38;2.30;99.90
12887;DHT22;6511;49.746;6.094;2022-12-07T01:27:03;2.40;99.90
12887;DHT22;6511;49.746;6.094;2022-12-07T01:29:29;2.40;99.90
12887;DHT22;6511;49.746;6.094;2022-12-07T01:31:54;2.50;99.90
12887;DHT22;6511;49.746;6.094;2022-12-07T01:34:19;2.50;99.90
12887;DHT22;6511;49.746;6.094;2022-12-07T01:36:45;2.40;99.90
12887;DHT22;6511;49.746;6.094;2022-12-07T01:39:10;2.40;99.90
12887;DHT22;6511;49.746;6.094;2022-12-07T01:41:37;2.40;99.90
12887;DHT22;6511;49.746;6.094;2022-12-07T01:44:24;2.50;99.90
12887;DHT22;6511;49.746;6.094;2022-12-07T01:46:51;2.60;99.90
12887;DHT22;6511;49.746;6.094;2022-12-07T01:49:19;2.60;99.90
12887;DHT22;6511;49.746;6.094;2022-12-07T01:51:46;2.60;99.90
12887;DHT22;6511;49.746;6.094;2022-12-07T01:54:12;2.60;99.90
12887;DHT22;6511;49.746;6.094;2022-12-07T01:56:40;2.60;99.90
12887;DHT22;6511;49.746;6.094;2022-12-07T01:59:06;2.60;99.90
12887;DHT22;6511;49.746;6.094;2022-12-07T02:01:33;2.60;99.90
12887;DHT22;6511;49.746;6.094;2022-12-07T02:03:58;2.60;99.90
12887;DHT22;6511;49.746;6.094;2022-12-07T02:06:24;2.60;99.90
12887;DHT22;6511;49.746;6.094;2022-12-07T02:08:50;2.70;99.90
12887;DHT22;6511;49.746;6.094;2022-12-07T02:11:16;2.80;99.90
12887;DHT22;6511;49.746;6.094;2022-12-07T02:13:42;2.80;99.90
12887;DHT22;6511;49.746;6.094;2022-12-07T02:21:19;3.00;99.90
12887;DHT22;6511;49.746;6.094;2022-12-07T02:26:26;3.10;99.90
12887;DHT22;6511;49.746;6.094;2022-12-07T02:31:23;3.00;99.90
12887;DHT22;6511;49.746;6.094;2022-12-07T02:33:54;3.00;99.90
12887;DHT22;6511;49.746;6.094;2022-12-07T02:36:25;3.00;99.90
12887;DHT22;6511;49.746;6.094;2022-12-07T02:39:00;3.00;99.90
12887;DHT22;6511;49.746;6.094;2022-12-07T02:41:30;3.00;99.90
12887;DHT22;6511;49.746;6.094;2022-12-07T02:43:57;3.00;99.90
12887;DHT22;6511;49.746;6.094;2022-12-07T02:46:25;3.00;99.90
12887;DHT22;6511;49.746;6.094;2022-12-07T02:48:52;3.00;99.90
12887;DHT22;6511;49.746;6.094;2022-12-07T02:51:18;3.10;99.90
12887;DHT22;6511;49.746;6.094;2022-12-07T02:53:44;3.00;99.90
12887;DHT22;6511;49.746;6.094;2022-12-07T03:03:46;3.00;99.90
12887;DHT22;6511;49.746;6.094;2022-12-07T03:06:16;3.00;99.90
12887;DHT22;6511;49.746;6.094;2022-12-07T03:08:51;3.00;99.90
12887;DHT22;6511;49.746;6.094;2022-12-07T03:11:22;3.00;99.90
12887;DHT22;6511;49.746;6.094;2022-12-07T03:16:19;3.10;99.90
12887;DHT22;6511;49.746;6.094;2022-12-07T03:21:18;3.20;99.90
12887;DHT22;6511;49.746;6.094;2022-12-07T03:23:45;3.20;99.90
12887;DHT22;6511;49.746;6.094;2022-12-07T03:26:12;3.20;99.90
12887;DHT22;6511;49.746;6.094;2022-12-07T03:28:41;3.20;99.90
12887;DHT22;6511;49.746;6.094;2022-12-07T03:33:36;3.20;99.90
12887;DHT22;6511;49.746;6.094;2022-12-07T03:38:48;3.20;99.90
12887;DHT22;6511;49.746;6.094;2022-12-07T03:41:16;3.20;99.90
12887;DHT22;6511;49.746;6.094;2022-12-07T03:43:44;3.30;99.90
12887;DHT22;6511;49.746;6.094;2022-12-07T03:48:36;3.30;99.90
12887;DHT22;6511;49.746;6.094;2022-12-07T03:53:39;3.30;99.90
12887;DHT22;6511;49.746;6.094;2022-12-07T03:56:06;3.30;99.90
12887;DHT22;6511;49.746;6.094;2022-12-07T03:58:33;3.30;99.90
12887;DHT22;6511;49.746;6.094;2022-12-07T04:00:59;3.30;99.90
12887;DHT22;6511;49.746;6.094;2022-12-07T04:03:24;3.40;99.90
12887;DHT22;6511;49.746;6.094;2022-12-07T04:05:50;3.30;99.90
12887;DHT22;6511;49.746;6.094;2022-12-07T04:08:15;3.40;99.90
12887;DHT22;6511;49.746;6.094;2022-12-07T04:10:41;3.40;99.90
12887;DHT22;6511;49.746;6.094;2022-12-07T04:13:06;3.30;99.90
12887;DHT22;6511;49.746;6.094;2022-12-07T04:15:32;3.30;99.90
12887;DHT22;6511;49.746;6.094;2022-12-07T04:17:57;3.40;99.90
12887;DHT22;6511;49.746;6.094;2022-12-07T04:20:23;3.40;99.90
12887;DHT22;6511;49.746;6.094;2022-12-07T04:22:48;3.50;99.90
12887;DHT22;6511;49.746;6.094;2022-12-07T04:25:14;3.40;99.90
12887;DHT22;6511;49.746;6.094;2022-12-07T04:27:39;3.40;99.90
12887;DHT22;6511;49.746;6.094;2022-12-07T04:30:05;3.50;99.90
12887;DHT22;6511;49.746;6.094;2022-12-07T04:32:30;3.40;99.90
12887;DHT22;6511;49.746;6.094;2022-12-07T04:34:56;3.50;99.90
12887;DHT22;6511;49.746;6.094;2022-12-07T04:37:22;3.40;99.90
12887;DHT22;6511;49.746;6.094;2022-12-07T04:39:47;3.40;99.90
12887;DHT22;6511;49.746;6.094;2022-12-07T04:42:13;3.40;99.90
12887;DHT22;6511;49.746;6.094;2022-12-07T04:44:38;3.40;99.90
12887;DHT22;6511;49.746;6.094;2022-12-07T04:47:04;3.40;99.90
12887;DHT22;6511;49.746;6.094;2022-12-07T04:49:29;3.50;99.90
12887;DHT22;6511;49.746;6.094;2022-12-07T04:51:55;3.40;99.90
12887;DHT22;6511;49.746;6.094;2022-12-07T04:54:20;3.40;99.90
12887;DHT22;6511;49.746;6.094;2022-12-07T04:56:46;3.40;99.90
12887;DHT22;6511;49.746;6.094;2022-12-07T04:59:11;3.40;99.90
12887;DHT22;6511;49.746;6.094;2022-12-07T05:01:37;3.30;99.90
12887;DHT22;6511;49.746;6.094;2022-12-07T05:04:03;3.40;99.90
12887;DHT22;6511;49.746;6.094;2022-12-07T05:06:28;3.50;99.90
12887;DHT22;6511;49.746;6.094;2022-12-07T05:08:54;3.40;99.90
12887;DHT22;6511;49.746;6.094;2022-12-07T05:11:19;3.40;99.90
12887;DHT22;6511;49.746;6.094;2022-12-07T05:14:07;3.40;99.90
12887;DHT22;6511;49.746;6.094;2022-12-07T05:16:34;3.40;99.90
12887;DHT22;6511;49.746;6.094;2022-12-07T05:18:59;3.40;99.90
12887;DHT22;6511;49.746;6.094;2022-12-07T05:21:24;3.50;99.90
12887;DHT22;6511;49.746;6.094;2022-12-07T05:23:50;3.50;99.90
12887;DHT22;6511;49.746;6.094;2022-12-07T05:26:15;3.50;99.90
12887;DHT22;6511;49.746;6.094;2022-12-07T05:28:41;3.50;99.90
12887;DHT22;6511;49.746;6.094;2022-12-07T05:31:06;3.60;99.90
12887;DHT22;6511;49.746;6.094;2022-12-07T05:33:32;3.60;99.90
12887;DHT22;6511;49.746;6.094;2022-12-07T05:35:57;3.60;99.90
12887;DHT22;6511;49.746;6.094;2022-12-07T05:38:23;3.70;99.90
12887;DHT22;6511;49.746;6.094;2022-12-07T05:40:50;3.70;99.90
12887;DHT22;6511;49.746;6.094;2022-12-07T05:43:15;3.60;99.90
12887;DHT22;6511;49.746;6.094;2022-12-07T05:45:41;3.60;99.90
12887;DHT22;6511;49.746;6.094;2022-12-07T05:48:06;3.60;99.90
12887;DHT22;6511;49.746;6.094;2022-12-07T05:50:32;3.60;99.90
12887;DHT22;6511;49.746;6.094;2022-12-07T05:52:58;3.60;99.90
12887;DHT22;6511;49.746;6.094;2022-12-07T05:55:24;3.60;99.90
12887;DHT22;6511;49.746;6.094;2022-12-07T05:57:49;3.60;99.90
12887;DHT22;6511;49.746;6.094;2022-12-07T06:00:33;3.60;99.90
12887;DHT22;6511;49.746;6.094;2022-12-07T06:02:59;3.60;99.90
12887;DHT22;6511;49.746;6.094;2022-12-07T06:05:24;3.60;99.90
12887;DHT22;6511;49.746;6.094;2022-12-07T06:07:49;3.60;99.90
12887;DHT22;6511;49.746;6.094;2022-12-07T06:10:15;3.60;99.90
12887;DHT22;6511;49.746;6.094;2022-12-07T06:12:40;3.70;99.90
12887;DHT22;6511;49.746;6.094;2022-12-07T06:15:08;3.70;99.90
12887;DHT22;6511;49.746;6.094;2022-12-07T06:17:34;3.70;99.90
12887;DHT22;6511;49.746;6.094;2022-12-07T06:20:00;3.80;99.90
12887;DHT22;6511;49.746;6.094;2022-12-07T06:22:25;3.70;99.90
12887;DHT22;6511;49.746;6.094;2022-12-07T06:24:50;3.70;99.90
12887;DHT22;6511;49.746;6.094;2022-12-07T06:27:16;3.70;99.90
12887;DHT22;6511;49.746;6.094;2022-12-07T06:29:41;3.70;99.90
12887;DHT22;6511;49.746;6.094;2022-12-07T06:32:07;3.80;99.90
12887;DHT22;6511;49.746;6.094;2022-12-07T06:34:32;3.80;99.90
12887;DHT22;6511;49.746;6.094;2022-12-07T06:36:58;3.80;99.90
12887;DHT22;6511;49.746;6.094;2022-12-07T06:39:24;3.90;99.90
12887;DHT22;6511;49.746;6.094;2022-12-07T06:41:50;3.80;99.90
12887;DHT22;6511;49.746;6.094;2022-12-07T06:44:17;3.70;99.90
12887;DHT22;6511;49.746;6.094;2022-12-07T06:46:42;3.70;99.90
12887;DHT22;6511;49.746;6.094;2022-12-07T06:49:08;3.70;99.90
12887;DHT22;6511;49.746;6.094;2022-12-07T06:51:34;3.70;99.90
12887;DHT22;6511;49.746;6.094;2022-12-07T06:54:04;3.60;99.90
12887;DHT22;6511;49.746;6.094;2022-12-07T06:56:30;3.70;99.90
12887;DHT22;6511;49.746;6.094;2022-12-07T06:58:55;3.70;99.90
12887;DHT22;6511;49.746;6.094;2022-12-07T07:01:21;3.70;99.90
12887;DHT22;6511;49.746;6.094;2022-12-07T07:03:46;3.70;99.90
12887;DHT22;6511;49.746;6.094;2022-12-07T07:06:12;3.60;99.90
12887;DHT22;6511;49.746;6.094;2022-12-07T07:08:38;3.60;99.90
12887;DHT22;6511;49.746;6.094;2022-12-07T07:11:04;3.60;99.90
12887;DHT22;6511;49.746;6.094;2022-12-07T07:13:30;3.60;99.90
12887;DHT22;6511;49.746;6.094;2022-12-07T07:15:56;3.60;99.90
12887;DHT22;6511;49.746;6.094;2022-12-07T07:18:21;3.60;99.90
12887;DHT22;6511;49.746;6.094;2022-12-07T07:20:47;3.50;99.90
12887;DHT22;6511;49.746;6.094;2022-12-07T07:23:12;3.50;99.90
12887;DHT22;6511;49.746;6.094;2022-12-07T07:25:38;3.50;99.90
12887;DHT22;6511;49.746;6.094;2022-12-07T07:28:03;3.50;99.90
12887;DHT22;6511;49.746;6.094;2022-12-07T07:30:29;3.50;99.90
12887;DHT22;6511;49.746;6.094;2022-12-07T07:32:58;3.60;99.90
12887;DHT22;6511;49.746;6.094;2022-12-07T07:35:24;3.60;99.90
12887;DHT22;6511;49.746;6.094;2022-12-07T07:37:49;3.60;99.90
12887;DHT22;6511;49.746;6.094;2022-12-07T07:40:18;3.60;99.90
12887;DHT22;6511;49.746;6.094;2022-12-07T07:42:46;3.70;99.90
12887;DHT22;6511;49.746;6.094;2022-12-07T07:45:11;3.70;99.90
12887;DHT22;6511;49.746;6.094;2022-12-07T07:47:37;3.70;99.90
12887;DHT22;6511;49.746;6.094;2022-12-07T07:50:02;3.70;99.90
12887;DHT22;6511;49.746;6.094;2022-12-07T07:52:28;3.70;99.90
12887;DHT22;6511;49.746;6.094;2022-12-07T07:54:53;3.70;99.90
12887;DHT22;6511;49.746;6.094;2022-12-07T07:57:19;3.80;99.90
12887;DHT22;6511;49.746;6.094;2022-12-07T07:59:44;3.90;99.90
12887;DHT22;6511;49.746;6.094;2022-12-07T08:02:13;3.90;99.90
12887;DHT22;6511;49.746;6.094;2022-12-07T08:04:39;3.80;99.90
12887;DHT22;6511;49.746;6.094;2022-12-07T08:07:05;3.80;99.90
12887;DHT22;6511;49.746;6.094;2022-12-07T08:09:30;3.80;99.90
12887;DHT22;6511;49.746;6.094;2022-12-07T08:11:55;3.80;99.90
12887;DHT22;6511;49.746;6.094;2022-12-07T08:14:21;3.90;99.90
12887;DHT22;6511;49.746;6.094;2022-12-07T08:16:46;3.90;99.90
12887;DHT22;6511;49.746;6.094;2022-12-07T08:19:12;3.90;99.90
12887;DHT22;6511;49.746;6.094;2022-12-07T08:21:38;4.00;99.90
12887;DHT22;6511;49.746;6.094;2022-12-07T08:24:03;4.00;99.90
12887;DHT22;6511;49.746;6.094;2022-12-07T08:26:29;4.00;99.90
12887;DHT22;6511;49.746;6.094;2022-12-07T08:28:54;4.00;99.90
12887;DHT22;6511;49.746;6.094;2022-12-07T08:31:20;4.00;99.90
12887;DHT22;6511;49.746;6.094;2022-12-07T08:33:46;4.10;99.90
12887;DHT22;6511;49.746;6.094;2022-12-07T08:36:11;4.00;99.90
12887;DHT22;6511;49.746;6.094;2022-12-07T08:38:38;4.00;99.90
12887;DHT22;6511;49.746;6.094;2022-12-07T08:41:03;4.00;99.90
12887;DHT22;6511;49.746;6.094;2022-12-07T08:43:29;4.00;99.90
12887;DHT22;6511;49.746;6.094;2022-12-07T08:48:23;4.10;99.90
12887;DHT22;6511;49.746;6.094;2022-12-07T08:50:50;4.10;99.90
12887;DHT22;6511;49.746;6.094;2022-12-07T08:53:16;4.20;99.90
12887;DHT22;6511;49.746;6.094;2022-12-07T08:55:41;4.20;99.90
12887;DHT22;6511;49.746;6.094;2022-12-07T08:58:07;4.10;99.90
12887;DHT22;6511;49.746;6.094;2022-12-07T09:00:32;4.00;99.90
12887;DHT22;6511;49.746;6.094;2022-12-07T09:02:58;4.00;99.90
12887;DHT22;6511;49.746;6.094;2022-12-07T09:05:23;4.00;99.90
12887;DHT22;6511;49.746;6.094;2022-12-07T09:07:50;3.90;99.90
12887;DHT22;6511;49.746;6.094;2022-12-07T09:10:16;3.90;99.90
12887;DHT22;6511;49.746;6.094;2022-12-07T09:12:42;3.90;99.90
12887;DHT22;6511;49.746;6.094;2022-12-07T09:15:07;3.90;99.90
12887;DHT22;6511;49.746;6.094;2022-12-07T09:17:33;3.90;99.90
12887;DHT22;6511;49.746;6.094;2022-12-07T09:19:59;4.00;99.90
12887;DHT22;6511;49.746;6.094;2022-12-07T09:22:29;4.00;99.90
12887;DHT22;6511;49.746;6.094;2022-12-07T09:24:56;3.90;99.90
12887;DHT22;6511;49.746;6.094;2022-12-07T09:27:21;3.90;99.90
12887;DHT22;6511;49.746;6.094;2022-12-07T09:29:47;3.90;99.90
12887;DHT22;6511;49.746;6.094;2022-12-07T09:32:12;4.00;99.90
12887;DHT22;6511;49.746;6.094;2022-12-07T09:34:38;4.00;99.90
12887;DHT22;6511;49.746;6.094;2022-12-07T09:37:03;4.10;99.90
12887;DHT22;6511;49.746;6.094;2022-12-07T09:39:29;4.20;99.90
12887;DHT22;6511;49.746;6.094;2022-12-07T09:41:54;4.40;99.90
12887;DHT22;6511;49.746;6.094;2022-12-07T09:44:23;4.50;99.90
12887;DHT22;6511;49.746;6.094;2022-12-07T09:46:49;4.60;99.90
12887;DHT22;6511;49.746;6.094;2022-12-07T09:49:19;4.70;99.90
12887;DHT22;6511;49.746;6.094;2022-12-07T09:51:45;4.80;99.90
12887;DHT22;6511;49.746;6.094;2022-12-07T09:54:12;4.80;99.90
12887;DHT22;6511;49.746;6.094;2022-12-07T09:56:38;4.80;99.90
12887;DHT22;6511;49.746;6.094;2022-12-07T09:59:03;4.80;99.90
12887;DHT22;6511;49.746;6.094;2022-12-07T10:01:30;4.70;99.90
12887;DHT22;6511;49.746;6.094;2022-12-07T10:04:14;4.70;99.90
12887;DHT22;6511;49.746;6.094;2022-12-07T10:06:41;4.80;99.90
12887;DHT22;6511;49.746;6.094;2022-12-07T10:09:10;4.80;99.90
12887;DHT22;6511;49.746;6.094;2022-12-07T10:11:57;4.80;99.90
12887;DHT22;6511;49.746;6.094;2022-12-07T10:14:21;4.90;99.90
12887;DHT22;6511;49.746;6.094;2022-12-07T10:16:46;5.10;99.90
12887;DHT22;6511;49.746;6.094;2022-12-07T10:19:29;5.10;99.90
12887;DHT22;6511;49.746;6.094;2022-12-07T10:22:07;5.20;99.90
12887;DHT22;6511;49.746;6.094;2022-12-07T10:24:34;5.40;99.90
12887;DHT22;6511;49.746;6.094;2022-12-07T10:26:59;5.30;99.90
12887;DHT22;6511;49.746;6.094;2022-12-07T10:29:29;5.20;99.90
12887;DHT22;6511;49.746;6.094;2022-12-07T10:31:59;5.20;99.90
12887;DHT22;6511;49.746;6.094;2022-12-07T10:34:32;5.10;99.90
12887;DHT22;6511;49.746;6.094;2022-12-07T10:37:17;5.00;99.90
12887;DHT22;6511;49.746;6.094;2022-12-07T10:39:44;5.00;99.90
12887;DHT22;6511;49.746;6.094;2022-12-07T10:42:18;4.90;99.90
12887;DHT22;6511;49.746;6.094;2022-12-07T10:44:43;4.90;99.90
12887;DHT22;6511;49.746;6.094;2022-12-07T10:47:20;5.00;99.90
12887;DHT22;6511;49.746;6.094;2022-12-07T10:53:06;5.20;99.90
12887;DHT22;6511;49.746;6.094;2022-12-07T10:55:47;5.40;99.90
12887;DHT22;6511;49.746;6.094;2022-12-07T11:19:17;5.60;99.90
12887;DHT22;6511;49.746;6.094;2022-12-07T11:24:32;5.50;99.90
12887;DHT22;6511;49.746;6.094;2022-12-07T11:29:58;5.50;99.90
12887;DHT22;6511;49.746;6.094;2022-12-07T11:37:35;5.40;99.90
12887;DHT22;6511;49.746;6.094;2022-12-07T11:40:02;5.40;99.90
12887;DHT22;6511;49.746;6.094;2022-12-07T11:42:39;5.40;99.90
12887;DHT22;6511;49.746;6.094;2022-12-07T11:45:16;5.40;99.90
12887;DHT22;6511;49.746;6.094;2022-12-07T11:48:03;5.40;99.90
12887;DHT22;6511;49.746;6.094;2022-12-07T11:53:09;5.60;99.90
12887;DHT22;6511;49.746;6.094;2022-12-07T12:01:05;5.80;99.90
12887;DHT22;6511;49.746;6.094;2022-12-07T12:03:34;5.80;99.90
12887;DHT22;6511;49.746;6.094;2022-12-07T12:06:00;5.70;99.90
12887;DHT22;6511;49.746;6.094;2022-12-07T12:08:30;5.60;99.90
12887;DHT22;6511;49.746;6.094;2022-12-07T12:11:02;5.50;99.90
12887;DHT22;6511;49.746;6.094;2022-12-07T12:16:12;5.40;99.90
12887;DHT22;6511;49.746;6.094;2022-12-07T12:21:48;5.30;99.90
12887;DHT22;6511;49.746;6.094;2022-12-07T12:26:24;5.30;99.90
12887;DHT22;6511;49.746;6.094;2022-12-07T12:28:52;5.30;99.90
12887;DHT22;6511;49.746;6.094;2022-12-07T12:34:31;5.50;99.90
12887;DHT22;6511;49.746;6.094;2022-12-07T12:41:50;5.80;99.90
12887;DHT22;6511;49.746;6.094;2022-12-07T12:51:41;5.80;99.90
12887;DHT22;6511;49.746;6.094;2022-12-07T12:57:08;5.90;99.90
12887;DHT22;6511;49.746;6.094;2022-12-07T12:59:36;6.10;99.90
12887;DHT22;6511;49.746;6.094;2022-12-07T13:04:52;6.10;99.90
12887;DHT22;6511;49.746;6.094;2022-12-07T13:10:02;6.00;99.90
12887;DHT22;6511;49.746;6.094;2022-12-07T13:12:28;5.90;99.90
12887;DHT22;6511;49.746;6.094;2022-12-07T13:19:56;6.00;99.90
12887;DHT22;6511;49.746;6.094;2022-12-07T13:24:57;6.10;99.90
12887;DHT22;6511;49.746;6.094;2022-12-07T13:27:24;6.20;99.90
12887;DHT22;6511;49.746;6.094;2022-12-07T13:29:50;6.10;99.90
12887;DHT22;6511;49.746;6.094;2022-12-07T13:32:24;6.20;99.90
12887;DHT22;6511;49.746;6.094;2022-12-07T13:34:49;6.10;99.90
12887;DHT22;6511;49.746;6.094;2022-12-07T13:37:18;6.10;99.90
12887;DHT22;6511;49.746;6.094;2022-12-07T13:39:47;5.90;99.90
12887;DHT22;6511;49.746;6.094;2022-12-07T13:42:24;5.90;99.90
12887;DHT22;6511;49.746;6.094;2022-12-07T13:44:50;6.00;99.90
12887;DHT22;6511;49.746;6.094;2022-12-07T13:47:21;6.20;99.90
12887;DHT22;6511;49.746;6.094;2022-12-07T13:49:51;6.20;99.90
12887;DHT22;6511;49.746;6.094;2022-12-07T13:52:24;6.30;99.90
12887;DHT22;6511;49.746;6.094;2022-12-07T13:57:21;6.20;99.90
12887;DHT22;6511;49.746;6.094;2022-12-07T13:59:47;6.10;99.90
12887;DHT22;6511;49.746;6.094;2022-12-07T14:02:24;6.10;99.90
12887;DHT22;6511;49.746;6.094;2022-12-07T14:04:50;6.00;99.90
12887;DHT22;6511;49.746;6.094;2022-12-07T14:07:24;5.90;99.90
12887;DHT22;6511;49.746;6.094;2022-12-07T14:10:22;5.90;99.90
12887;DHT22;6511;49.746;6.094;2022-12-07T14:12:39;5.80;99.90
12887;DHT22;6511;49.746;6.094;2022-12-07T14:15:15;5.80;99.90
12887;DHT22;6511;49.746;6.094;2022-12-07T14:17:51;5.90;99.90
12887;DHT22;6511;49.746;6.094;2022-12-07T14:20:30;5.90;99.90
12887;DHT22;6511;49.746;6.094;2022-12-07T14:22:56;5.90;99.90
12887;DHT22;6511;49.746;6.094;2022-12-07T14:25:22;5.90;99.90
12887;DHT22;6511;49.746;6.094;2022-12-07T14:30:18;5.90;99.90
12887;DHT22;6511;49.746;6.094;2022-12-07T14:32:44;5.90;99.90
12887;DHT22;6511;49.746;6.094;2022-12-07T14:35:14;5.90;99.90
12887;DHT22;6511;49.746;6.094;2022-12-07T14:37:41;5.70;99.90
12887;DHT22;6511;49.746;6.094;2022-12-07T14:40:09;5.60;99.90
12887;DHT22;6511;49.746;6.094;2022-12-07T14:42:37;5.40;99.90
12887;DHT22;6511;49.746;6.094;2022-12-07T14:45:03;5.40;99.90
12887;DHT22;6511;49.746;6.094;2022-12-07T14:47:28;5.40;99.90
12887;DHT22;6511;49.746;6.094;2022-12-07T14:49:54;5.40;99.90
12887;DHT22;6511;49.746;6.094;2022-12-07T14:52:21;5.40;99.90
12887;DHT22;6511;49.746;6.094;2022-12-07T14:54:47;5.40;99.90
12887;DHT22;6511;49.746;6.094;2022-12-07T14:57:12;5.40;99.90
12887;DHT22;6511;49.746;6.094;2022-12-07T14:59:38;5.50;99.90
12887;DHT22;6511;49.746;6.094;2022-12-07T15:02:03;5.40;99.90
12887;DHT22;6511;49.746;6.094;2022-12-07T15:04:29;5.30;99.90
12887;DHT22;6511;49.746;6.094;2022-12-07T15:06:55;5.20;99.90
12887;DHT22;6511;49.746;6.094;2022-12-07T15:09:21;5.20;99.90
12887;DHT22;6511;49.746;6.094;2022-12-07T15:11:46;5.20;99.90
12887;DHT22;6511;49.746;6.094;2022-12-07T15:14:12;5.10;99.90
12887;DHT22;6511;49.746;6.094;2022-12-07T15:16:39;5.10;99.90
12887;DHT22;6511;49.746;6.094;2022-12-07T15:19:05;5.10;99.90
12887;DHT22;6511;49.746;6.094;2022-12-07T15:21:31;5.10;99.90
12887;DHT22;6511;49.746;6.094;2022-12-07T15:23:56;5.10;99.90
12887;DHT22;6511;49.746;6.094;2022-12-07T15:26:22;5.10;99.90
12887;DHT22;6511;49.746;6.094;2022-12-07T15:28:47;5.10;99.90
12887;DHT22;6511;49.746;6.094;2022-12-07T15:31:13;5.10;99.90
12887;DHT22;6511;49.746;6.094;2022-12-07T15:33:39;5.20;99.90
12887;DHT22;6511;49.746;6.094;2022-12-07T15:36:05;5.20;99.90
12887;DHT22;6511;49.746;6.094;2022-12-07T15:38:30;5.10;99.90
12887;DHT22;6511;49.746;6.094;2022-12-07T15:40:56;5.10;99.90
12887;DHT22;6511;49.746;6.094;2022-12-07T15:43:22;5.10;99.90
12887;DHT22;6511;49.746;6.094;2022-12-07T15:46:06;5.20;99.90
12887;DHT22;6511;49.746;6.094;2022-12-07T15:48:31;5.10;99.90
12887;DHT22;6511;49.746;6.094;2022-12-07T15:51:01;5.10;99.90
12887;DHT22;6511;49.746;6.094;2022-12-07T15:53:27;5.10;99.90
12887;DHT22;6511;49.746;6.094;2022-12-07T15:55:52;5.20;99.90
12887;DHT22;6511;49.746;6.094;2022-12-07T15:58:18;5.10;99.90
12887;DHT22;6511;49.746;6.094;2022-12-07T16:00:43;5.00;99.90
12887;DHT22;6511;49.746;6.094;2022-12-07T16:03:08;5.00;99.90
12887;DHT22;6511;49.746;6.094;2022-12-07T16:05:34;5.00;99.90
12887;DHT22;6511;49.746;6.094;2022-12-07T16:08:00;5.00;99.90
12887;DHT22;6511;49.746;6.094;2022-12-07T16:10:25;5.00;99.90
12887;DHT22;6511;49.746;6.094;2022-12-07T16:12:50;5.00;99.90
12887;DHT22;6511;49.746;6.094;2022-12-07T16:15:16;5.00;99.90
12887;DHT22;6511;49.746;6.094;2022-12-07T16:17:42;4.90;99.90
12887;DHT22;6511;49.746;6.094;2022-12-07T16:20:07;4.90;99.90
12887;DHT22;6511;49.746;6.094;2022-12-07T16:22:33;4.90;99.90
12887;DHT22;6511;49.746;6.094;2022-12-07T16:24:58;4.80;99.90
12887;DHT22;6511;49.746;6.094;2022-12-07T16:27:24;4.80;99.90
12887;DHT22;6511;49.746;6.094;2022-12-07T16:29:49;4.80;99.90
12887;DHT22;6511;49.746;6.094;2022-12-07T16:32:15;4.80;99.90
12887;DHT22;6511;49.746;6.094;2022-12-07T16:34:40;4.80;99.90
12887;DHT22;6511;49.746;6.094;2022-12-07T16:37:06;4.80;99.90
12887;DHT22;6511;49.746;6.094;2022-12-07T16:39:31;4.80;99.90
12887;DHT22;6511;49.746;6.094;2022-12-07T16:41:57;4.70;99.90
12887;DHT22;6511;49.746;6.094;2022-12-07T16:44:22;4.70;99.90
12887;DHT22;6511;49.746;6.094;2022-12-07T16:46:48;4.60;99.90
12887;DHT22;6511;49.746;6.094;2022-12-07T16:49:14;4.60;99.90
12887;DHT22;6511;49.746;6.094;2022-12-07T16:51:40;4.60;99.90
12887;DHT22;6511;49.746;6.094;2022-12-07T16:54:11;4.50;99.90
12887;DHT22;6511;49.746;6.094;2022-12-07T16:56:37;4.40;99.90
12887;DHT22;6511;49.746;6.094;2022-12-07T16:59:02;4.40;99.90
12887;DHT22;6511;49.746;6.094;2022-12-07T17:01:28;4.30;99.90
12887;DHT22;6511;49.746;6.094;2022-12-07T17:03:54;4.30;99.90
12887;DHT22;6511;49.746;6.094;2022-12-07T17:06:22;4.20;99.90
12887;DHT22;6511;49.746;6.094;2022-12-07T17:08:48;4.20;99.90
12887;DHT22;6511;49.746;6.094;2022-12-07T17:11:18;4.30;99.90
12887;DHT22;6511;49.746;6.094;2022-12-07T17:13:43;4.10;99.90
12887;DHT22;6511;49.746;6.094;2022-12-07T17:16:28;4.10;99.90
12887;DHT22;6511;49.746;6.094;2022-12-07T17:18:53;4.10;99.90
12887;DHT22;6511;49.746;6.094;2022-12-07T17:21:19;4.10;99.90
12887;DHT22;6511;49.746;6.094;2022-12-07T17:23:45;4.10;99.90
12887;DHT22;6511;49.746;6.094;2022-12-07T17:26:12;4.10;99.90
12887;DHT22;6511;49.746;6.094;2022-12-07T17:28:38;4.20;99.90
12887;DHT22;6511;49.746;6.094;2022-12-07T17:31:04;4.20;99.90
12887;DHT22;6511;49.746;6.094;2022-12-07T17:33:30;4.20;99.90
12887;DHT22;6511;49.746;6.094;2022-12-07T17:35:56;4.30;99.90
12887;DHT22;6511;49.746;6.094;2022-12-07T17:38:21;4.30;99.90
12887;DHT22;6511;49.746;6.094;2022-12-07T17:40:47;4.30;99.90
12887;DHT22;6511;49.746;6.094;2022-12-07T17:43:12;4.30;99.90
12887;DHT22;6511;49.746;6.094;2022-12-07T17:45:38;4.40;99.90
12887;DHT22;6511;49.746;6.094;2022-12-07T17:48:04;4.40;99.90
12887;DHT22;6511;49.746;6.094;2022-12-07T17:50:29;4.30;99.90
12887;DHT22;6511;49.746;6.094;2022-12-07T17:53:13;4.30;99.90
12887;DHT22;6511;49.746;6.094;2022-12-07T17:55:38;4.20;99.90
12887;DHT22;6511;49.746;6.094;2022-12-07T17:58:04;4.20;99.90
12887;DHT22;6511;49.746;6.094;2022-12-07T18:00:30;4.30;99.90
12887;DHT22;6511;49.746;6.094;2022-12-07T18:03:01;4.20;99.90
12887;DHT22;6511;49.746;6.094;2022-12-07T18:05:26;4.20;99.90